Flight Track Log - Related Links

Times and Time Zones

All times are in EDT time to prevent confusion due to time zone crossing. See the EGF4086 flight status page for this flight to view local times or setup timezone preferences in your user account.

Time Position Orientation Groundspeed Altitude Reporting Facility
EDT Latitude Longitude Course Direction KTS MPH feet Rate Location/Type
Thu 05:04:36 PM 43.0953 -77.7003 243° Southwest 156 180 1,300  Level Cleveland Center
Thu 05:05:49 PM 43.0681 -77.7725 243° Southwest 255 293 3,400 2,060 Climbing Cleveland Center
Thu 05:06:50 PM 43.0906 -77.8483 292° West 252 290 5,900 2,430 Climbing Cleveland Center
Thu 05:07:50 PM 43.1072 -77.9386 284° West 252 290 8,300 2,200 Climbing Cleveland Center
Thu 05:08:50 PM 43.1239 -78.0289 284° West 247 284 10,300 1,650 Climbing Cleveland Center
Thu 05:09:50 PM 43.0681 -78.0511 196° South 169 194 11,600 1,200 Climbing Cleveland Center
Thu 05:10:50 PM 43.0281 -78.1236 233° Southwest 188 216 12,700 1,300 Climbing Cleveland Center
Thu 05:11:50 PM 43.0283 -78.2431 270° West 268 308 14,200 1,500 Climbing Cleveland Center
Thu 05:12:50 PM 43.0286 -78.3594 260° West 293 337 15,700 1,500 Climbing Cleveland Center
Thu 05:13:50 PM 43.0308 -78.4786 272° West 308 354 17,200 1,550 Climbing Cleveland Center
Thu 05:14:50 PM 43.0308 -78.5981 270° West 320 368 18,800 1,550 Climbing Cleveland Center
Thu 05:15:50 PM 43.0328 -78.7172 271° West 320 368 20,300 1,250 Climbing Cleveland Center
Thu 05:16:50 PM 43.0350 -78.8450 271° West 327 376 21,300 1,100 Climbing Cleveland Center
Thu 05:17:50 PM 43.0347 -78.9756 270° West 333 383 22,500 1,474 Climbing Cleveland Center
Thu 05:18:44 PM 43.0333 -79.0667 269° West 330 380 24,100 1,474 Climbing Toronto Center
Thu 05:19:44 PM 43.0333 -79.2000 270° West 330 380 25,300 1,150 Climbing Toronto Center
Thu 05:20:44 PM 43.0333 -79.3333 270° West 330 380 26,400 1,050 Climbing Toronto Center
Thu 05:21:44 PM 43.0333 -79.4500 270° West 330 380 27,400 1,000 Climbing Toronto Center
Thu 05:22:44 PM 43.0333 -79.5833 270° West 340 391 28,400 950 Climbing Toronto Center
Thu 05:23:44 PM 43.0333 -79.7000 270° West 340 391 29,300 800 Climbing Toronto Center
Thu 05:24:44 PM 43.0333 -79.8333 270° West 350 403 30,000 750 Climbing Toronto Center
Thu 05:25:44 PM 43.0000 -79.9833 253° West 360 414 30,800 500 Climbing Toronto Center
Thu 05:26:44 PM 42.9833 -80.1167 260° West 370 426 31,000 100 Climbing Toronto Center
Thu 05:27:44 PM 42.9500 -80.2667 253° West 390 449 31,000  Level Toronto Center
Thu 05:28:44 PM 42.9333 -80.4000 260° West 390 449 31,000 250 Level Toronto Center
Thu 05:29:44 PM 42.9167 -80.5667 262° West 400 460 31,500 500 Climbing Toronto Center
Thu 05:30:44 PM 42.9333 -80.7000 280° West 400 460 32,000 250 Climbing Toronto Center
Thu 05:31:44 PM 42.9167 -80.8667 262° West 400 460 32,000  Level Toronto Center
Thu 05:32:44 PM 42.9167 -81.0000 270° West 390 449 32,000  Level Toronto Center
Thu 05:33:44 PM 42.9333 -81.1667 278° West 390 449 32,000  Level Toronto Center
Thu 05:34:44 PM 42.9333 -81.3167 270° West 400 460 32,000  Level Toronto Center
Thu 05:35:44 PM 42.9333 -81.4500 270° West 400 460 32,000  Level Toronto Center
Thu 05:36:44 PM 42.9500 -81.6000 279° West 400 460 32,000  Level Toronto Center
Thu 05:37:44 PM 42.9500 -81.7500 270° West 400 460 32,000  Level Toronto Center
Thu 05:38:44 PM 42.9333 -81.9167 262° West 390 449 32,000  Level Toronto Center
Thu 05:39:44 PM 42.9333 -82.0500 270° West 390 449 32,000  Level Toronto Center
Thu 05:40:44 PM 42.9500 -82.2000 279° West 390 449 32,000  Level Toronto Center
Thu 05:41:44 PM 42.9500 -82.3667 270° West 390 449 32,000  Level Toronto Center
Thu 05:42:44 PM 42.9500 -82.5000 270° West 390 449 32,000  Level Toronto Center
Thu 05:43:50 PM 42.9622 -82.6711 276° West 391 450 32,000  Level Cleveland Center
Thu 05:44:50 PM 42.9636 -82.8189 271° West 391 450 32,000  Level Cleveland Center
Thu 05:45:50 PM 42.9650 -82.9692 271° West 391 450 32,000  Level Cleveland Center
Thu 05:46:50 PM 42.9642 -83.0997 270° West 396 456 32,000  Level Cleveland Center
Thu 05:47:50 PM 42.9650 -83.2503 270° West 396 456 32,000  Level Cleveland Center
Thu 05:48:50 PM 42.9658 -83.3919 271° West 391 450 32,000  Level Cleveland Center
Thu 05:49:50 PM 42.9661 -83.5425 270° West 391 450 32,000  Level Cleveland Center
Thu 05:50:50 PM 42.9667 -83.6844 270° West 385 443 32,000  Level Cleveland Center
Thu 05:51:50 PM 42.9586 -83.8258 266° West 385 443 32,000  Level Cleveland Center
Thu 05:52:50 PM 42.9442 -83.9642 262° West 380 437 32,000  Level Cleveland Center
Thu 05:53:50 PM 42.9317 -84.1053 263° West 380 437 32,000  Level Cleveland Center
Thu 05:55:21 PM 42.9122 -84.3058 263° West 371 427 32,000  Level Chicago Center
Thu 05:56:23 PM 42.8986 -84.4428 262° West 366 421 32,000 -484 Level Chicago Center
Thu 05:57:25 PM 42.8811 -84.6078 262° West 367 422 31,000 -968 Descending Chicago Center
Thu 05:58:27 PM 42.8667 -84.7442 262° West 366 421 30,000 -1,024 Descending Chicago Center
Thu 05:59:28 PM 42.8528 -84.8819 262° West 367 422 28,900 -960 Descending Chicago Center
Thu 06:00:32 PM 42.8375 -85.0219 262° West 372 428 28,000 -429 Descending Chicago Center
Thu 06:01:34 PM 42.8233 -85.1539 262° West 359 413 28,000 -48 Level Chicago Center
Thu 06:02:36 PM 42.8100 -85.2850 262° West 351 404 27,900 -780 Descending Chicago Center
Thu 06:03:37 PM 42.7919 -85.4442 261° West 353 406 26,400 -1,366 Descending Chicago Center
Thu 06:04:39 PM 42.7742 -85.5719 259° West 347 399 25,100 -1,142 Descending Chicago Center
Thu 06:06:00 PM 42.7301 -85.7381 259° West  Level FlightAware Approximate
Thu 06:08:47 PM 42.6919 -86.0208 251° West 288 331 20,500  Level Chicago Center
Thu 06:09:49 PM 42.6728 -86.1253 256° West 284 327 20,000 -244 Descending Chicago Center
Thu 06:10:50 PM 42.6536 -86.2317 256° West 288 331 20,000  Level Chicago Center
Thu 06:11:52 PM 42.6294 -86.3539 255° West 279 321 20,000 -435 Level Chicago Center
Thu 06:12:54 PM 42.6108 -86.4564 256° West 280 322 19,100 -1,403 Descending Chicago Center
Thu 06:13:00 PM 42.5662 -86.6278 256° West  Level FlightAware Approximate
Thu 06:13:56 PM 42.5928 -86.5569 256° West 275 316 17,100  Level Chicago Center
Thu 06:14:00 PM 42.5407 -86.7540 251° West  Level FlightAware Approximate
Thu 06:14:58 PM 42.5719 -86.6600 255° West 282 325 15,400  Level Chicago Center
Thu 06:16:00 PM 42.5519 -86.7647 255° West 289 333 14,100 -1,122 Descending Chicago Center
Thu 06:17:01 PM 42.5269 -86.8503 248° West 250 288 13,100 -1,024 Descending Chicago Center
Thu 06:18:03 PM 42.5031 -86.9403 250° West 253 291 12,000 -1,161 Descending Chicago Center
Thu 06:19:05 PM 42.4731 -87.0469 249° West 253 291 10,700 -1,161 Descending Chicago Center
Thu 06:20:07 PM 42.4483 -87.1339 249° West 249 287 9,600 -823 Descending Chicago Center
Thu 06:21:09 PM 42.4183 -87.2192 245° Southwest 254 292 9,000 -290 Descending Chicago Center
Thu 06:22:11 PM 42.3794 -87.2961 236° Southwest 250 288 9,000 -146 Level Chicago Center
Thu 06:23:12 PM 42.3408 -87.3753 237° Southwest 252 290 8,700 -683 Descending Chicago Center
Thu 06:24:14 PM 42.3028 -87.4553 237° Southwest 243 280 7,600 -968 Descending Chicago Center
Thu 06:25:16 PM 42.2675 -87.5250 236° Southwest 228 262 6,700 -1,016 Descending Chicago Center
Thu 06:26:18 PM 42.2250 -87.6117 237° Southwest 233 268 5,500 -1,065 Descending Chicago Center
Thu 06:27:20 PM 42.1897 -87.6842 237° Southwest 233 268 4,500 -726 Descending Chicago Center
Thu 06:28:22 PM 42.1428 -87.7389 221° Southwest 225 259 4,000 -484 Descending Chicago Center

Login

Don't have an account? Register now (free) for customized features, flight alerts, and more!